Time;durP1;ratioP1;P1;durP2;ratioP2;P2;SDS_P1;SDS_P2;PMS_P1;PMS_P2;Temp;Humidity;BMP_temperature;BMP_pressure;BME280_temperature;BME280_humidity;BME280_pressure;Samples;Min_cycle;Max_cycle;Signal;HPM_P1;HPM_P2
2022/12/24 14:29:15;;;;;;;0.25;0.25;;;;;;;;;;175059;27;10002335;-81
2022/12/24 14:29:45;;;;;;;0.00;0.00;;;;;;;;;;528668;27;1817;-82
2022/12/24 14:39:56;;;;;;;47.63;13.07;;;;;;;;;;532088;27;20542;-81
2022/12/24 14:40:16;;;;;;;32.40;12.90;;;;;;;;;;529809;27;1469;-84
2022/12/24 14:40:52;;;;;;;19.63;12.10;;;;;;;;;;530215;27;1370;-79
2022/12/24 14:41:44;;;;;;;18.08;11.45;;;;;;;;;;529061;27;1437;-76
2022/12/24 14:42:21;;;;;;;18.10;10.90;;;;;;;;;;523452;28;1144;-73
2022/12/24 14:42:55;;;;;;;18.83;10.90;;;;;;;;;;525513;28;1406;-73
2022/12/24 14:43:48;;;;;;;16.48;10.10;;;;;;;;;;527741;27;1386;-73
2022/12/24 14:44:38;;;;;;;12.88;8.18;;;;;;;;;;527759;28;1471;-82
2022/12/24 14:45:03;;;;;;;14.90;9.25;;;;;;;;;;519396;28;1374;-85
2022/12/24 14:45:43;;;;;;;14.52;9.10;;;;;;;;;;525885;28;1524;-83
2022/12/24 14:46:14;;;;;;;13.68;9.02;;;;;;;;;;524419;28;1380;-88
2022/12/24 14:46:55;;;;;;;14.00;8.40;;;;;;;;;;523169;28;1286;-88
2022/12/24 14:47:34;;;;;;;13.95;8.45;;;;;;;;;;526889;27;1286;-87
2022/12/24 14:48:01;;;;;;;13.90;8.23;;;;;;;;;;526461;28;1930;-88
2022/12/24 14:48:26;;;;;;;12.82;8.10;;;;;;;;;;528149;28;1253;-89
2022/12/24 14:48:55;;;;;;;13.52;8.38;;;;;;;;;;527906;28;1419;-88
2022/12/24 14:49:32;;;;;;;12.63;8.13;;;;;;;;;;528116;28;1337;-87
2022/12/24 14:50:06;;;;;;;12.15;7.57;;;;;;;;;;525774;28;1919;-87
2022/12/24 14:50:43;;;;;;;12.32;7.80;;;;;;;;;;525571;28;1399;-89
2022/12/24 14:51:26;;;;;;;12.38;7.40;;;;;;;;;;527076;28;1301;-90
2022/12/24 14:55:47;;;;;;;11.43;5.00;;;;;;;;;;533063;27;20178;-83
2022/12/24 14:56:14;;;;;;;5.10;3.40;;;;;;;;;;527951;27;2171;-81
2022/12/24 14:56:30;;;;;;;5.60;3.40;;;;;;;;;;525252;28;1449;-81
2022/12/24 14:56:45;;;;;;;12.98;7.35;;;;;;;;;;525924;28;1165;-80
2022/12/24 14:57:17;;;;;;;14.00;7.50;;;;;;;;;;523945;28;1117;-77
2022/12/24 14:57:32;;;;;;;12.27;7.10;;;;;;;;;;522868;28;1922;-81
2022/12/24 14:58:35;;;;;;;11.80;6.18;;;;;;;;;;531836;27;20182;-81
2022/12/24 14:58:51;;;;;;;8.68;4.68;;;;;;;;;;527427;27;1412;-85
2022/12/24 14:59:18;;;;;;;2.60;1.38;;;;;;;;;;526814;28;1555;-85
2022/12/24 15:00:00;;;;;;;6.13;3.47;;;;;;;;;;523517;28;1540;-81
2022/12/24 15:00:19;;;;;;;12.00;6.88;;;;;;;;;;521707;28;1487;-79
2022/12/24 15:00:34;;;;;;;12.30;6.90;;;;;;;;;;519740;28;1299;-82
2022/12/24 15:00:52;;;;;;;12.43;6.90;;;;;;;;;;521155;28;1797;-84
2022/12/24 15:01:24;;;;;;;12.18;6.85;;;;;;;;;;521803;28;1455;-76
2022/12/24 15:01:39;;;;;;;12.23;6.93;;;;;;;;;;523529;28;1294;-83
2022/12/24 15:01:55;;;;;;;12.53;6.67;;;;;;;;;;521965;28;1188;-81
2022/12/24 15:02:27;;;;;;;12.33;6.80;;;;;;;;;;521673;28;1537;-79
2022/12/24 15:02:50;;;;;;;10.75;6.28;;;;;;;;;;522216;28;1558;-78
2022/12/24 15:03:13;;;;;;;9.73;6.28;;;;;;;;;;523152;28;1298;-80
2022/12/24 15:04:14;;;;;;;9.32;6.20;;;;;;;;;;531026;27;20163;-81
2022/12/24 15:04:30;;;;;;;14.75;6.47;;;;;;;;;;525621;27;1305;-79
2022/12/24 15:05:00;;;;;;;14.03;6.50;;;;;;;;;;524166;28;1431;-82
2022/12/24 15:05:20;;;;;;;13.05;6.63;;;;;;;;;;522245;28;1428;-83
2022/12/24 15:05:35;;;;;;;11.35;5.80;;;;;;;;;;521729;28;1401;-84
2022/12/24 15:06:04;;;;;;;9.67;6.10;;;;;;;;;;522464;28;1368;-81
2022/12/24 15:06:19;;;;;;;12.43;6.30;;;;;;;;;;521777;28;1309;-76
2022/12/24 15:06:39;;;;;;;13.45;6.45;;;;;;;;;;525280;28;1254;-77
2022/12/24 15:06:56;;;;;;;11.98;6.15;;;;;;;;;;525530;28;1295;-76
2022/12/24 15:07:11;;;;;;;10.93;5.70;;;;;;;;;;521922;28;1685;-78
2022/12/24 15:07:27;;;;;;;9.23;5.40;;;;;;;;;;520447;28;1226;-77
2022/12/24 15:07:51;;;;;;;10.00;5.67;;;;;;;;;;520689;28;1359;-75
2022/12/24 15:08:13;;;;;;;11.10;5.50;;;;;;;;;;519251;28;1389;-78
2022/12/24 15:08:38;;;;;;;10.23;5.60;;;;;;;;;;521288;28;1504;-76
2022/12/24 15:08:54;;;;;;;10.15;5.40;;;;;;;;;;521586;28;2275;-76
2022/12/24 15:09:18;;;;;;;12.77;5.45;;;;;;;;;;518032;28;1539;-77
2022/12/24 15:09:34;;;;;;;11.50;5.38;;;;;;;;;;520831;28;1377;-77
2022/12/24 15:09:50;;;;;;;10.05;5.50;;;;;;;;;;521182;28;1262;-77
2022/12/24 15:10:19;;;;;;;11.88;5.75;;;;;;;;;;521152;28;1606;-77
2022/12/24 15:10:44;;;;;;;13.40;5.70;;;;;;;;;;518620;28;1432;-76
2022/12/24 15:11:02;;;;;;;15.68;6.03;;;;;;;;;;519771;28;1083;-76
2022/12/24 15:11:22;;;;;;;13.15;5.93;;;;;;;;;;518759;28;1309;-76
2022/12/24 15:11:37;;;;;;;14.23;5.97;;;;;;;;;;520436;28;1452;-76
2022/12/24 15:11:55;;;;;;;16.07;5.80;;;;;;;;;;519871;28;1694;-76
2022/12/24 15:12:11;;;;;;;14.77;5.85;;;;;;;;;;521990;28;2050;-76
2022/12/24 15:12:26;;;;;;;13.23;5.90;;;;;;;;;;520990;28;1339;-76
2022/12/24 15:12:42;;;;;;;11.98;5.90;;;;;;;;;;523401;28;1436;-76
2022/12/24 15:13:02;;;;;;;11.50;5.80;;;;;;;;;;523048;28;1627;-76
2022/12/24 15:13:29;;;;;;;14.15;5.82;;;;;;;;;;522591;28;1648;-76
2022/12/24 15:13:48;;;;;;;14.80;5.93;;;;;;;;;;520424;28;1971;-76
2022/12/24 15:14:04;;;;;;;15.40;6.03;;;;;;;;;;520874;28;1642;-76
2022/12/24 15:14:22;;;;;;;12.85;6.13;;;;;;;;;;520046;28;1690;-77
2022/12/24 15:14:42;;;;;;;13.30;6.10;;;;;;;;;;519211;28;1725;-76
2022/12/24 15:14:58;;;;;;;13.95;5.90;;;;;;;;;;520353;28;1623;-75
2022/12/24 15:15:16;;;;;;;14.75;5.93;;;;;;;;;;520177;28;1686;-77
2022/12/24 15:15:33;;;;;;;16.23;6.22;;;;;;;;;;518885;28;1342;-76
2022/12/24 15:15:51;;;;;;;13.98;6.00;;;;;;;;;;519636;28;1484;-76
2022/12/24 15:16:12;;;;;;;13.18;5.93;;;;;;;;;;520649;28;1594;-77
2022/12/24 15:16:33;;;;;;;12.15;5.80;;;;;;;;;;521375;28;1602;-78
2022/12/24 15:16:52;;;;;;;15.07;5.60;;;;;;;;;;521146;28;1670;-76
2022/12/24 15:17:11;;;;;;;13.57;5.68;;;;;;;;;;523474;28;1669;-76
2022/12/24 15:17:26;;;;;;;12.27;5.70;;;;;;;;;;524179;28;1350;-76
2022/12/24 15:17:43;;;;;;;9.82;5.55;;;;;;;;;;521246;28;1517;-78
2022/12/24 15:18:01;;;;;;;10.00;5.50;;;;;;;;;;522249;28;1664;-76
2022/12/24 15:18:21;;;;;;;11.43;5.40;;;;;;;;;;520531;28;1364;-76
2022/12/24 15:18:47;;;;;;;11.60;5.28;;;;;;;;;;519755;28;2080;-76
2022/12/24 15:19:12;;;;;;;10.40;5.55;;;;;;;;;;517766;28;2004;-77
2022/12/24 15:19:36;;;;;;;10.48;5.50;;;;;;;;;;520332;28;1591;-76
2022/12/24 15:19:52;;;;;;;10.48;5.40;;;;;;;;;;519896;28;1618;-76
2022/12/24 15:20:15;;;;;;;13.68;5.85;;;;;;;;;;520964;28;1643;-77
2022/12/24 15:20:30;;;;;;;12.25;5.60;;;;;;;;;;522213;28;1582;-76
2022/12/24 15:20:51;;;;;;;11.53;5.70;;;;;;;;;;521090;28;1658;-76
2022/12/24 15:21:32;;;;;;;11.25;5.50;;;;;;;;;;519811;28;1695;-77
2022/12/24 15:21:48;;;;;;;11.45;5.45;;;;;;;;;;520402;28;1623;-77
2022/12/24 15:22:09;;;;;;;10.98;5.20;;;;;;;;;;523209;28;1432;-76
2022/12/24 15:22:28;;;;;;;10.00;5.47;;;;;;;;;;523747;28;1286;-77
2022/12/24 15:22:48;;;;;;;10.65;5.35;;;;;;;;;;522501;28;1377;-76
2022/12/24 15:23:04;;;;;;;10.57;5.40;;;;;;;;;;521268;28;1581;-76
2022/12/24 15:23:26;;;;;;;10.23;5.40;;;;;;;;;;522846;28;1709;-77
2022/12/24 15:23:46;;;;;;;9.52;5.10;;;;;;;;;;521422;28;2030;-77
2022/12/24 15:24:02;;;;;;;12.43;5.35;;;;;;;;;;520990;28;1449;-76
2022/12/24 15:24:27;;;;;;;14.77;5.57;;;;;;;;;;519331;28;1620;-76
2022/12/24 15:24:45;;;;;;;11.90;5.30;;;;;;;;;;521679;28;1365;-76
2022/12/24 15:25:00;;;;;;;11.02;5.28;;;;;;;;;;523235;28;1975;-77
2022/12/24 15:25:20;;;;;;;10.57;5.33;;;;;;;;;;518778;28;1255;-77
2022/12/24 15:25:35;;;;;;;11.68;5.40;;;;;;;;;;518428;28;1538;-76
2022/12/24 15:25:51;;;;;;;11.18;5.45;;;;;;;;;;516978;28;1400;-78
2022/12/24 15:26:28;;;;;;;9.70;5.30;;;;;;;;;;520635;28;1418;-76
2022/12/24 15:26:43;;;;;;;9.00;5.10;;;;;;;;;;522430;28;1469;-77
2022/12/24 15:27:01;;;;;;;9.60;5.38;;;;;;;;;;519580;28;1531;-76
2022/12/24 15:27:21;;;;;;;10.32;5.65;;;;;;;;;;519729;28;1466;-76
2022/12/24 15:27:38;;;;;;;8.93;5.00;;;;;;;;;;522170;28;1545;-76
2022/12/24 15:27:54;;;;;;;9.48;5.10;;;;;;;;;;524704;28;1471;-76
2022/12/24 15:28:22;;;;;;;11.60;5.45;;;;;;;;;;525309;28;1806;-76
2022/12/24 15:28:38;;;;;;;10.05;5.32;;;;;;;;;;524931;28;1498;-77
2022/12/24 15:28:55;;;;;;;9.40;5.13;;;;;;;;;;524154;28;1485;-76
2022/12/24 15:29:21;;;;;;;11.10;5.20;;;;;;;;;;522229;28;1267;-76
2022/12/24 15:29:41;;;;;;;11.35;5.25;;;;;;;;;;521336;28;1638;-76
2022/12/24 15:29:57;;;;;;;10.68;5.43;;;;;;;;;;520737;28;1496;-76
2022/12/24 15:30:21;;;;;;;11.25;5.38;;;;;;;;;;518704;28;1494;-77
2022/12/24 15:30:37;;;;;;;11.75;5.70;;;;;;;;;;518027;28;1306;-76
2022/12/24 15:31:17;;;;;;;10.05;5.35;;;;;;;;;;522219;28;1244;-77
2022/12/24 15:31:32;;;;;;;9.73;5.10;;;;;;;;;;522060;28;1271;-75
2022/12/24 15:31:56;;;;;;;11.40;4.90;;;;;;;;;;519663;28;1778;-77
2022/12/24 15:32:13;;;;;;;10.65;5.20;;;;;;;;;;520649;28;1310;-76
2022/12/24 15:32:29;;;;;;;9.00;5.15;;;;;;;;;;521414;28;1277;-76
2022/12/24 15:32:45;;;;;;;8.45;5.05;;;;;;;;;;519986;28;1486;-76
2022/12/24 15:33:00;;;;;;;9.15;4.95;;;;;;;;;;520181;28;1580;-76
2022/12/24 15:33:15;;;;;;;10.20;4.90;;;;;;;;;;518908;28;1467;-76
2022/12/24 15:33:36;;;;;;;10.57;5.23;;;;;;;;;;518909;28;1231;-76
2022/12/24 15:33:54;;;;;;;9.18;5.30;;;;;;;;;;515632;28;1322;-76
2022/12/24 15:34:28;;;;;;;9.77;5.00;;;;;;;;;;515357;28;1477;-76
2022/12/24 15:34:49;;;;;;;10.52;5.20;;;;;;;;;;517430;28;1357;-76
2022/12/24 15:35:05;;;;;;;9.27;5.28;;;;;;;;;;519841;28;1565;-76
2022/12/24 15:35:34;;;;;;;10.40;5.20;;;;;;;;;;521401;28;1287;-76
2022/12/24 15:35:55;;;;;;;9.38;5.18;;;;;;;;;;521027;28;1698;-76
2022/12/24 15:36:12;;;;;;;9.13;4.93;;;;;;;;;;523703;28;1310;-76
2022/12/24 15:36:34;;;;;;;10.18;5.10;;;;;;;;;;522569;28;2065;-76
2022/12/24 15:36:51;;;;;;;10.70;5.38;;;;;;;;;;523049;28;1334;-76
2022/12/24 15:37:18;;;;;;;10.13;5.35;;;;;;;;;;520749;28;1597;-77
2022/12/24 15:37:38;;;;;;;9.93;5.07;;;;;;;;;;522716;28;1428;-76
2022/12/24 15:37:57;;;;;;;9.68;5.07;;;;;;;;;;524631;28;1693;-76
2022/12/24 15:38:24;;;;;;;10.02;5.15;;;;;;;;;;524020;28;1171;-76
2022/12/24 15:38:42;;;;;;;9.32;4.97;;;;;;;;;;523597;28;1384;-76
2022/12/24 15:39:01;;;;;;;9.80;5.00;;;;;;;;;;523422;28;1407;-76
2022/12/24 15:39:16;;;;;;;10.95;5.28;;;;;;;;;;519197;28;1253;-75
2022/12/24 15:39:32;;;;;;;9.07;4.97;;;;;;;;;;518957;28;2048;-77
2022/12/24 15:39:55;;;;;;;8.70;4.90;;;;;;;;;;520013;28;1437;-76
2022/12/24 15:40:21;;;;;;;10.88;4.80;;;;;;;;;;520293;28;1492;-76
2022/12/24 15:40:37;;;;;;;10.38;5.13;;;;;;;;;;522785;28;1298;-76
2022/12/24 15:40:53;;;;;;;9.50;5.00;;;;;;;;;;521782;28;1477;-76
2022/12/24 15:41:16;;;;;;;8.93;4.93;;;;;;;;;;521101;28;1960;-77
2022/12/24 15:42:18;;;;;;;8.93;5.30;;;;;;;;;;523973;28;1157;-76
2022/12/24 15:42:34;;;;;;;9.40;5.13;;;;;;;;;;525321;28;3646;-76
2022/12/24 15:42:50;;;;;;;9.60;5.10;;;;;;;;;;523052;28;1347;-77
2022/12/24 15:43:06;;;;;;;10.85;5.18;;;;;;;;;;522130;28;1326;-76
2022/12/24 15:43:22;;;;;;;10.37;5.00;;;;;;;;;;523444;28;1444;-76
2022/12/24 15:43:39;;;;;;;8.50;4.57;;;;;;;;;;522295;28;1916;-76
2022/12/24 15:44:01;;;;;;;9.13;4.82;;;;;;;;;;523357;28;1266;-76
2022/12/24 15:44:17;;;;;;;13.25;5.15;;;;;;;;;;522827;28;2035;-76
2022/12/24 15:44:36;;;;;;;11.27;5.10;;;;;;;;;;523476;28;1453;-76
2022/12/24 15:44:59;;;;;;;8.43;4.53;;;;;;;;;;523995;28;1361;-77
2022/12/24 15:45:28;;;;;;;8.98;4.63;;;;;;;;;;522572;28;1358;-76
2022/12/24 15:45:47;;;;;;;9.02;4.88;;;;;;;;;;520687;28;1672;-76
2022/12/24 15:46:02;;;;;;;9.40;4.90;;;;;;;;;;520520;28;1499;-76
2022/12/24 15:46:20;;;;;;;10.00;5.10;;;;;;;;;;518015;28;1330;-77
2022/12/24 15:46:35;;;;;;;10.93;5.03;;;;;;;;;;520208;28;1593;-76
2022/12/24 15:46:57;;;;;;;11.20;4.97;;;;;;;;;;522493;28;1353;-76
2022/12/24 15:47:20;;;;;;;10.60;5.03;;;;;;;;;;519846;28;1454;-76
2022/12/24 15:47:41;;;;;;;7.88;4.35;;;;;;;;;;521299;28;1551;-77
2022/12/24 15:48:00;;;;;;;10.15;4.80;;;;;;;;;;519400;28;1330;-77
2022/12/24 15:48:23;;;;;;;9.70;4.90;;;;;;;;;;520542;28;1609;-77
2022/12/24 15:48:44;;;;;;;10.88;4.60;;;;;;;;;;521742;28;1405;-76
2022/12/24 15:49:01;;;;;;;9.18;4.75;;;;;;;;;;520558;28;1426;-76
2022/12/24 15:49:17;;;;;;;8.60;4.90;;;;;;;;;;522548;28;1459;-76
2022/12/24 15:49:33;;;;;;;8.65;4.95;;;;;;;;;;522610;28;1238;-76
2022/12/24 15:49:51;;;;;;;8.75;4.75;;;;;;;;;;523186;28;1408;-77
2022/12/24 15:50:29;;;;;;;9.52;4.68;;;;;;;;;;520573;28;1468;-76
2022/12/24 15:50:47;;;;;;;8.90;4.90;;;;;;;;;;519126;28;1263;-77
2022/12/24 15:51:04;;;;;;;9.77;4.95;;;;;;;;;;515968;28;1371;-77
2022/12/24 15:51:28;;;;;;;9.45;5.07;;;;;;;;;;517131;28;1597;-76
2022/12/24 15:51:43;;;;;;;8.05;4.97;;;;;;;;;;520389;28;1299;-77
2022/12/24 15:52:11;;;;;;;8.50;4.83;;;;;;;;;;521790;28;1394;-76
2022/12/24 15:52:26;;;;;;;10.25;4.90;;;;;;;;;;523225;28;1312;-75
2022/12/24 15:52:43;;;;;;;10.87;4.80;;;;;;;;;;523311;28;1220;-76
2022/12/24 15:53:04;;;;;;;9.35;4.50;;;;;;;;;;520433;28;1259;-76
2022/12/24 15:53:30;;;;;;;8.93;4.70;;;;;;;;;;520123;28;1384;-76
2022/12/24 15:53:47;;;;;;;8.15;4.57;;;;;;;;;;520660;28;1270;-77
2022/12/24 15:54:10;;;;;;;8.02;4.53;;;;;;;;;;520424;28;1334;-76
2022/12/24 15:54:25;;;;;;;10.05;4.57;;;;;;;;;;521151;28;1393;-76
2022/12/24 15:54:45;;;;;;;10.27;4.73;;;;;;;;;;519763;28;1269;-76
2022/12/24 15:55:01;;;;;;;8.52;4.45;;;;;;;;;;520986;28;1385;-76
2022/12/24 15:55:34;;;;;;;8.23;4.60;;;;;;;;;;520513;28;1507;-77
2022/12/24 15:56:11;;;;;;;8.73;4.57;;;;;;;;;;518426;28;1316;-76
2022/12/24 15:56:45;;;;;;;8.85;4.68;;;;;;;;;;518411;28;1397;-76
2022/12/24 15:57:22;;;;;;;8.52;4.63;;;;;;;;;;522213;28;1735;-76
2022/12/24 15:57:38;;;;;;;8.73;4.72;;;;;;;;;;522986;28;1360;-77
2022/12/24 15:57:53;;;;;;;8.93;4.80;;;;;;;;;;522735;28;1087;-76
2022/12/24 15:58:16;;;;;;;7.97;4.57;;;;;;;;;;520899;28;1430;-76
2022/12/24 15:58:35;;;;;;;8.82;4.45;;;;;;;;;;520208;28;1319;-76
2022/12/24 15:58:50;;;;;;;9.15;4.60;;;;;;;;;;521252;28;1291;-76
2022/12/24 15:59:11;;;;;;;8.13;4.57;;;;;;;;;;523087;28;1636;-76
2022/12/24 15:59:34;;;;;;;6.88;4.25;;;;;;;;;;524179;28;1535;-76
2022/12/24 15:59:58;;;;;;;8.27;4.38;;;;;;;;;;524615;28;1400;-76
2022/12/24 16:00:23;;;;;;;8.88;4.63;;;;;;;;;;520671;28;1854;-77
2022/12/24 16:00:39;;;;;;;8.68;4.60;;;;;;;;;;522366;28;1094;-77
2022/12/24 16:01:12;;;;;;;7.80;4.40;;;;;;;;;;520160;28;1450;-76
2022/12/24 16:01:28;;;;;;;9.55;4.32;;;;;;;;;;520666;28;1396;-77
2022/12/24 16:01:45;;;;;;;8.10;4.18;;;;;;;;;;519915;28;1326;-76
2022/12/24 16:02:35;;;;;;;9.07;4.35;;;;;;;;;;522042;28;1313;-77
2022/12/24 16:02:51;;;;;;;8.45;4.60;;;;;;;;;;524730;28;1312;-76
2022/12/24 16:03:10;;;;;;;8.48;4.55;;;;;;;;;;522106;28;1350;-76
2022/12/24 16:03:25;;;;;;;8.45;4.50;;;;;;;;;;521073;28;1331;-76
2022/12/24 16:03:55;;;;;;;8.17;4.20;;;;;;;;;;521963;28;1908;-76
2022/12/24 16:04:19;;;;;;;7.70;4.38;;;;;;;;;;523018;28;1506;-76
2022/12/24 16:04:35;;;;;;;8.00;4.47;;;;;;;;;;520960;28;1448;-76
2022/12/24 16:04:50;;;;;;;7.72;4.53;;;;;;;;;;520942;28;1387;-77
2022/12/24 16:05:21;;;;;;;7.47;4.37;;;;;;;;;;518891;28;1810;-76
2022/12/24 16:05:38;;;;;;;7.35;4.57;;;;;;;;;;520436;28;1285;-76
2022/12/24 16:06:00;;;;;;;7.70;4.15;;;;;;;;;;521042;28;1378;-77
2022/12/24 16:06:16;;;;;;;7.45;4.50;;;;;;;;;;520810;28;1421;-76
2022/12/24 16:06:52;;;;;;;7.07;4.35;;;;;;;;;;522216;28;1595;-76
2022/12/24 16:07:23;;;;;;;8.70;4.63;;;;;;;;;;524721;28;1078;-77
2022/12/24 16:08:13;;;;;;;7.95;4.30;;;;;;;;;;518837;28;1808;-76
2022/12/24 16:08:23;;;;;;;7.20;4.38;;;;;;;;;;523293;28;1317;-76
2022/12/24 16:08:40;;;;;;;8.43;4.27;;;;;;;;;;519685;28;1314;-76
2022/12/24 16:08:55;;;;;;;7.60;4.30;;;;;;;;;;522984;28;1397;-76
2022/12/24 16:09:29;;;;;;;8.10;4.10;;;;;;;;;;522082;28;1222;-76
2022/12/24 16:09:45;;;;;;;7.93;4.47;;;;;;;;;;523058;28;1843;-76
2022/12/24 16:10:13;;;;;;;8.70;4.60;;;;;;;;;;520973;28;1289;-76
2022/12/24 16:10:28;;;;;;;7.30;4.15;;;;;;;;;;522054;28;1314;-77
2022/12/24 16:10:48;;;;;;;8.00;4.33;;;;;;;;;;518829;28;1435;-76
2022/12/24 16:11:17;;;;;;;7.60;4.03;;;;;;;;;;520200;28;1293;-77
2022/12/24 16:11:35;;;;;;;7.03;4.07;;;;;;;;;;521164;28;1878;-76
2022/12/24 16:11:50;;;;;;;9.13;4.40;;;;;;;;;;520179;28;1434;-76
2022/12/24 16:12:21;;;;;;;11.20;4.40;;;;;;;;;;523698;28;1328;-77
2022/12/24 16:12:36;;;;;;;8.95;4.10;;;;;;;;;;523120;28;1480;-77
2022/12/24 16:12:52;;;;;;;9.30;4.15;;;;;;;;;;519786;28;1230;-76
2022/12/24 16:13:14;;;;;;;9.80;4.17;;;;;;;;;;521270;28;1408;-76
2022/12/24 16:13:31;;;;;;;8.13;4.22;;;;;;;;;;522023;28;1600;-76
2022/12/24 16:13:49;;;;;;;8.27;4.55;;;;;;;;;;521988;28;1489;-76
2022/12/24 16:14:19;;;;;;;9.70;4.50;;;;;;;;;;522746;28;1511;-77
2022/12/24 16:14:34;;;;;;;7.32;4.22;;;;;;;;;;520876;28;1369;-76
2022/12/24 16:14:56;;;;;;;7.07;4.10;;;;;;;;;;522594;28;1421;-76
2022/12/24 16:15:13;;;;;;;9.73;4.20;;;;;;;;;;521599;28;1241;-76
2022/12/24 16:15:28;;;;;;;9.10;3.90;;;;;;;;;;519726;28;1509;-76
2022/12/24 16:15:49;;;;;;;7.97;3.90;;;;;;;;;;520030;28;1367;-77
2022/12/24 16:16:07;;;;;;;7.90;4.00;;;;;;;;;;521961;28;1273;-77
2022/12/24 16:16:32;;;;;;;9.07;4.25;;;;;;;;;;519441;28;1760;-76
2022/12/24 16:16:49;;;;;;;7.22;4.10;;;;;;;;;;517191;28;1139;-77
2022/12/24 16:17:17;;;;;;;8.05;4.10;;;;;;;;;;519824;28;1297;-77
2022/12/24 16:17:33;;;;;;;7.38;4.20;;;;;;;;;;520877;28;1365;-77
2022/12/24 16:17:49;;;;;;;7.13;4.20;;;;;;;;;;518971;28;1802;-76
2022/12/24 16:18:04;;;;;;;7.43;4.18;;;;;;;;;;518542;28;1359;-76
2022/12/24 16:18:25;;;;;;;7.63;4.27;;;;;;;;;;516234;28;1453;-77
2022/12/24 16:18:54;;;;;;;6.82;4.18;;;;;;;;;;519545;28;1558;-76
2022/12/24 16:19:24;;;;;;;7.20;4.28;;;;;;;;;;520333;28;1458;-76
2022/12/24 16:19:40;;;;;;;7.93;4.35;;;;;;;;;;522746;28;1110;-77
2022/12/24 16:20:01;;;;;;;7.57;4.18;;;;;;;;;;521896;28;1635;-77
2022/12/24 16:20:21;;;;;;;7.78;4.10;;;;;;;;;;521278;28;1465;-77
2022/12/24 16:20:36;;;;;;;7.35;4.18;;;;;;;;;;523178;28;1312;-76
2022/12/24 16:20:55;;;;;;;6.65;3.97;;;;;;;;;;523966;28;1427;-76
2022/12/24 16:21:32;;;;;;;6.50;3.92;;;;;;;;;;522125;28;3509;-76
2022/12/24 16:21:54;;;;;;;8.10;4.30;;;;;;;;;;522424;28;1336;-76
2022/12/24 16:22:46;;;;;;;6.45;4.03;;;;;;;;;;524719;28;1259;-76
2022/12/24 16:23:01;;;;;;;7.82;4.53;;;;;;;;;;523181;28;1402;-76
2022/12/24 16:23:23;;;;;;;9.65;4.40;;;;;;;;;;521395;28;1269;-76
2022/12/24 16:23:46;;;;;;;8.77;4.05;;;;;;;;;;521871;28;1974;-76
2022/12/24 16:24:18;;;;;;;6.80;4.22;;;;;;;;;;519718;28;1310;-76
2022/12/24 16:24:34;;;;;;;7.10;4.10;;;;;;;;;;517128;28;1884;-76
2022/12/24 16:24:54;;;;;;;6.60;4.13;;;;;;;;;;518145;28;1418;-76
2022/12/24 16:25:27;;;;;;;6.55;3.97;;;;;;;;;;518582;28;1425;-76
2022/12/24 16:25:42;;;;;;;7.05;4.03;;;;;;;;;;517229;28;1422;-76
2022/12/24 16:25:58;;;;;;;7.43;3.80;;;;;;;;;;520930;28;1968;-78
2022/12/24 16:26:13;;;;;;;8.37;3.80;;;;;;;;;;521479;28;1416;-76
2022/12/24 16:26:29;;;;;;;8.65;3.83;;;;;;;;;;519160;28;1334;-76
2022/12/24 16:26:44;;;;;;;7.33;4.10;;;;;;;;;;518347;28;1479;-76
2022/12/24 16:27:00;;;;;;;7.65;4.10;;;;;;;;;;521697;28;1408;-76
2022/12/24 16:27:15;;;;;;;7.50;3.93;;;;;;;;;;522362;28;1356;-76
2022/12/24 16:27:30;;;;;;;7.25;4.03;;;;;;;;;;518583;28;1244;-76
2022/12/24 16:27:46;;;;;;;7.40;3.87;;;;;;;;;;517285;28;2059;-76
2022/12/24 16:28:01;;;;;;;8.63;4.10;;;;;;;;;;518690;28;1216;-77
2022/12/24 16:28:17;;;;;;;7.75;4.10;;;;;;;;;;517338;28;1484;-77
2022/12/24 16:28:32;;;;;;;6.80;3.87;;;;;;;;;;516976;28;1422;-76
2022/12/24 16:28:48;;;;;;;7.13;3.90;;;;;;;;;;517630;28;1347;-76
2022/12/24 16:29:03;;;;;;;7.10;3.73;;;;;;;;;;517127;28;1247;-77
2022/12/24 16:29:19;;;;;;;7.27;3.90;;;;;;;;;;517529;28;1741;-77
2022/12/24 16:29:34;;;;;;;7.13;4.10;;;;;;;;;;519802;28;1380;-76
2022/12/24 16:29:49;;;;;;;9.60;4.20;;;;;;;;;;517778;28;1397;-76
2022/12/24 16:30:06;;;;;;;9.35;4.22;;;;;;;;;;519889;28;1196;-76
2022/12/24 16:30:22;;;;;;;7.35;4.00;;;;;;;;;;521327;28;1355;-76
2022/12/24 16:30:37;;;;;;;6.78;4.00;;;;;;;;;;522906;28;1288;-77
2022/12/24 16:30:54;;;;;;;7.40;4.00;;;;;;;;;;523070;28;1700;-76
2022/12/24 16:31:28;;;;;;;7.60;3.88;;;;;;;;;;521300;28;1254;-76
2022/12/24 16:31:55;;;;;;;7.35;3.90;;;;;;;;;;519546;28;1444;-76
2022/12/24 16:32:32;;;;;;;7.70;4.10;;;;;;;;;;518938;28;1278;-76
2022/12/24 16:32:49;;;;;;;7.25;4.05;;;;;;;;;;520160;28;1386;-77
2022/12/24 16:33:11;;;;;;;7.38;4.15;;;;;;;;;;522046;28;1381;-76
2022/12/24 16:33:27;;;;;;;6.40;3.80;;;;;;;;;;518700;28;1355;-76
2022/12/24 16:33:44;;;;;;;6.70;4.00;;;;;;;;;;519234;28;1489;-76
2022/12/24 16:34:00;;;;;;;6.90;4.20;;;;;;;;;;516907;28;1673;-77
2022/12/24 16:34:16;;;;;;;6.43;4.07;;;;;;;;;;517787;28;1507;-76
2022/12/24 16:34:32;;;;;;;7.03;4.00;;;;;;;;;;517662;28;1219;-76
2022/12/24 16:34:47;;;;;;;7.18;4.00;;;;;;;;;;516262;28;1356;-77
2022/12/24 16:35:05;;;;;;;7.10;4.17;;;;;;;;;;516703;28;1500;-76
2022/12/24 16:35:32;;;;;;;7.40;4.13;;;;;;;;;;519367;28;1673;-76
2022/12/24 16:35:47;;;;;;;8.50;4.18;;;;;;;;;;516800;28;1375;-76
2022/12/24 16:36:03;;;;;;;7.43;3.93;;;;;;;;;;519374;28;1444;-76
2022/12/24 16:36:18;;;;;;;7.40;4.03;;;;;;;;;;519570;28;1320;-76
2022/12/24 16:36:34;;;;;;;8.13;4.27;;;;;;;;;;518604;28;1285;-76
2022/12/24 16:36:49;;;;;;;7.40;4.05;;;;;;;;;;517545;28;1641;-76
2022/12/24 16:37:05;;;;;;;6.10;3.90;;;;;;;;;;517724;28;1422;-76
2022/12/24 16:37:20;;;;;;;6.85;4.05;;;;;;;;;;516671;28;1747;-76
2022/12/24 16:37:35;;;;;;;7.93;4.10;;;;;;;;;;517567;28;1429;-76
2022/12/24 16:37:51;;;;;;;7.57;4.03;;;;;;;;;;515969;28;1452;-76
2022/12/24 16:38:06;;;;;;;7.88;3.95;;;;;;;;;;519883;28;1414;-76
2022/12/24 16:38:22;;;;;;;8.00;4.17;;;;;;;;;;518867;28;1189;-77
2022/12/24 16:39:22;;;;;;;6.88;4.22;;;;;;;;;;517370;28;1475;-76
2022/12/24 16:39:24;;;;;;;9.27;4.65;;;;;;;;;;518760;28;1085;-77
2022/12/24 16:39:47;;;;;;;8.15;4.47;;;;;;;;;;519159;28;1467;-76
2022/12/24 16:40:03;;;;;;;7.63;4.60;;;;;;;;;;519053;28;1376;-76
2022/12/24 16:40:18;;;;;;;7.97;4.67;;;;;;;;;;517708;28;1442;-76
2022/12/24 16:40:33;;;;;;;8.15;4.75;;;;;;;;;;518759;28;1665;-76
2022/12/24 16:40:49;;;;;;;8.07;5.13;;;;;;;;;;515775;28;1171;-76
2022/12/24 16:41:04;;;;;;;8.20;5.20;;;;;;;;;;515231;28;1180;-76
2022/12/24 16:41:20;;;;;;;8.18;5.18;;;;;;;;;;515285;28;1112;-76
2022/12/24 16:43:48;;;;;;;7.77;5.13;;;;;;;;;;515087;28;1289;-76
2022/12/24 16:43:53;;;;;;;13.40;6.53;;;;;;;;;;527934;27;1243;-76
2022/12/24 16:44:08;;;;;;;11.67;6.20;;;;;;;;;;525564;28;1316;-76
2022/12/24 16:44:23;;;;;;;9.57;6.20;;;;;;;;;;523862;28;1460;-77
2022/12/24 16:44:39;;;;;;;10.55;6.22;;;;;;;;;;523690;28;1439;-76
2022/12/24 16:44:54;;;;;;;10.68;6.45;;;;;;;;;;521542;28;1224;-76
2022/12/24 16:45:10;;;;;;;11.30;7.00;;;;;;;;;;520065;28;1440;-76
2022/12/24 16:45:28;;;;;;;12.50;7.10;;;;;;;;;;519932;28;1369;-77
2022/12/24 16:45:45;;;;;;;12.00;7.05;;;;;;;;;;519018;28;1111;-77
2022/12/24 16:46:03;;;;;;;11.60;7.18;;;;;;;;;;520360;28;1471;-76
2022/12/24 16:46:18;;;;;;;12.48;7.03;;;;;;;;;;520496;28;1403;-76
2022/12/24 16:46:34;;;;;;;14.33;7.17;;;;;;;;;;522044;28;1395;-76
2022/12/24 16:46:51;;;;;;;14.60;7.43;;;;;;;;;;522760;28;1307;-76
2022/12/24 16:47:11;;;;;;;12.85;7.65;;;;;;;;;;524361;28;1265;-76
2022/12/24 16:47:30;;;;;;;13.20;7.68;;;;;;;;;;521529;28;1226;-77
2022/12/24 16:47:45;;;;;;;11.65;7.43;;;;;;;;;;521542;28;1418;-76
2022/12/24 16:48:00;;;;;;;11.43;7.10;;;;;;;;;;519587;28;1445;-76
2022/12/24 16:48:20;;;;;;;11.70;7.30;;;;;;;;;;517304;28;1449;-76
2022/12/24 16:48:36;;;;;;;11.80;7.70;;;;;;;;;;517362;28;1628;-76
2022/12/24 16:48:52;;;;;;;12.80;7.93;;;;;;;;;;519365;28;1464;-76
2022/12/24 16:49:15;;;;;;;13.67;7.90;;;;;;;;;;521401;28;1483;-76
2022/12/24 16:49:31;;;;;;;13.80;8.30;;;;;;;;;;521785;28;1722;-76
2022/12/24 16:49:46;;;;;;;12.55;7.93;;;;;;;;;;521315;28;1540;-76
2022/12/24 16:50:06;;;;;;;12.40;7.80;;;;;;;;;;520148;28;1523;-76
2022/12/24 16:50:21;;;;;;;12.27;7.65;;;;;;;;;;521523;28;1393;-77
2022/12/24 16:50:36;;;;;;;13.10;7.90;;;;;;;;;;521418;28;1281;-76
2022/12/24 16:50:52;;;;;;;13.33;8.13;;;;;;;;;;521359;28;1332;-76
2022/12/24 16:51:08;;;;;;;12.18;8.20;;;;;;;;;;519774;28;1421;-77
2022/12/24 16:51:23;;;;;;;12.57;8.18;;;;;;;;;;521197;28;1208;-77
2022/12/24 16:51:38;;;;;;;13.63;8.20;;;;;;;;;;521004;28;1721;-76
2022/12/24 16:51:54;;;;;;;14.23;8.37;;;;;;;;;;519823;28;1347;-76
2022/12/24 16:52:24;;;;;;;14.02;8.43;;;;;;;;;;517817;28;1406;-76
2022/12/24 16:52:40;;;;;;;13.43;8.30;;;;;;;;;;516908;28;1179;-76
2022/12/24 16:52:55;;;;;;;13.55;8.52;;;;;;;;;;520042;28;1317;-76
2022/12/24 16:53:14;;;;;;;13.57;8.60;;;;;;;;;;518254;28;1176;-76
2022/12/24 16:53:30;;;;;;;12.95;8.55;;;;;;;;;;521084;28;1709;-76
2022/12/24 16:53:45;;;;;;;13.45;8.70;;;;;;;;;;521363;28;1360;-76
2022/12/24 16:54:00;;;;;;;14.00;8.63;;;;;;;;;;522848;28;1394;-77
2022/12/24 16:54:16;;;;;;;14.10;8.70;;;;;;;;;;521404;28;1416;-76
2022/12/24 16:54:31;;;;;;;13.32;8.93;;;;;;;;;;521202;28;1339;-76
2022/12/24 16:54:47;;;;;;;13.20;8.73;;;;;;;;;;520785;28;1620;-76